Hlavní strana
METAR-TAF:

METAR-TAF

Letiště :

Bangui, Středoafrická republika

zeměpisná šířka: 04-24N, zeměpisná délka: 018-31E, výška: 365 m

Aktuální stav počasí

Zpráva byla vytvořena před 26 minutami, v 13:00 UTC
vítr z různých směrů 3 kt
Teplota 32°C
Vlhkost vzduchu 28%
Tlak 1011 hPa
Viditelnost 10 km a více
Žádná oblačnost pod 1500 m, nevyskytují se cumulonimby.

METAR: FEFF 101300Z VRB03KT CAVOK 32/11 Q1011 NOSIG

Čas: 14:26 (13:26 UTC)

Předpověď počasí

Zpráva byla vytvořena před 2 hodinami a 26 minutami, v 11:00 UTC
Předpověď platná od 10 v 12 UTC do 11 v 18 UTC
Severní vítr 6 kt
Viditelnost 10 km a více
Žádná oblačnost pod 1500 m, nevyskytují se cumulonimby.
Změna
od 10 v 15 UTC do 10 v 16 UTC
Viditelnost: 3000 m
zákal
Změna
od 10 v 20 UTC do 10 v 22 UTC
Viditelnost 10 km a více
Žádná oblačnost pod 1500 m, nevyskytují se cumulonimby.

TAF: FEFF 101100Z 1012/1118 36006KT 9999 CAVOK BECMG 1015/1016 3000 HZ BECMG 1020/1022 CAVOK

Stav a předpovědi počasí z více než 4 000 letišť (zprávy METAR a TAF).

Červené a žluté tečky na mapě představují dostupné meteorologické stanice.

Když kurzor umístíte na tečku, zobrazí se název stanice.

Pak kliknutím zobrazíte stav a předpověď počasí.

Chcete-li změnit mapu, kliknutím na zelené tlačítko se znaménkem +mapu přiblížíte, kliknutím na zelené tlačítko se znaménkem – mapu oddálíte a kliknutím na zelené šipky přejdete na sousední mapy.


METAR-TAF: